Aérodrome :
LOGIN :

S'inscrire | Disclaimer

   EN    FR    IT 

 










Légende :    VFR   VFR Marginal   IFR   IFR Intensif   IFR Très Intensif
Visi : 
Plafond : 
>= 8 km
>= 3000ft
5 à 8 km
1000 à 3000 ft
1500m à 5 km
500 à 1000 ft
800 à 1500m
200 à 500 ft
< 800m
< 200 ft
Symboles :   Orages  Brouillard  Fortes neiges  Fortes précipitations  Vent > 20 kt
SIGMETs :   Divers  Orages  Givrage  Turbulence  Onde Orograph.  Cendres Volcan.






- Altitude de l'aérodrome : 53 ft
- Code IATA : HAM


EDDH - Hamburg

DERNIER METAR :
  • 141120Z AUTO 16014KT 110V200 CAVOK 20/08 Q1008 NOSIG

METARs EXPIRÉS :
  • 141050Z AUTO 17012KT CAVOK 20/09 Q1009 NOSIG
  • 141020Z AUTO 18011KT 150V220 CAVOK 19/09 Q1009 NOSIG
  • 140950Z AUTO 21013KT CAVOK 20/10 Q1009 NOSIG
  • 140920Z AUTO 18012KT 150V210 9999 FEW048 19/09 Q1009 NOSIG
  • 140850Z AUTO 17011KT 150V210 9999 FEW046 18/09 Q1009 NOSIG
  • 140820Z AUTO 17011KT 9999 FEW047 16/09 Q1009 NOSIG
  • 140750Z AUTO 16011KT 120V180 CAVOK 17/09 Q1009 NOSIG
  • 140720Z AUTO 15012KT CAVOK 16/08 Q1009 NOSIG
  • 140650Z AUTO 15011KT CAVOK 15/08 Q1009 NOSIG
  • 140620Z AUTO 14010KT CAVOK 14/08 Q1009 NOSIG

TAF TAF EDDH
Valide du 14 à 06h jusqu'au 15 à 12h UTC


140500Z 1406/1512 15010KT CAVOK
BECMG 1506/1508 22013KT
TEMPO 1506/1512 23015G25KT 4000 SHRA BKN015CB
PROB30
TEMPO 1507/1512 2500 TSRA BKN012CB



MET'MAP, la Météo Aéronautique d'un coup d'oeil ! - Copyright ORBIFLY Décembre 2007 - Disclaimer

ORBIFLY MET'MAP TEAM :

Programmation & Développement : Alexandra Zaïnal
Sur une idée originale de : Baudouin d'Aumeries
Soutien technique & logistique : Manuel Goepfert
Assistance : Marc-Olivier Méhu




SOURCES & CREDITS :

   NOAA